sensor_id;sensor_type;location;lat;lon;timestamp;P1;durP1;ratioP1;P2;durP2;ratioP2
6346;SDS011;3206;42.666;23.600;2022-11-15T11:10:05;15.53;;;2.97;;
6346;SDS011;3206;42.666;23.600;2022-11-15T11:12:45;14.37;;;3.30;;
6346;SDS011;3206;42.666;23.600;2022-11-15T11:15:12;8.80;;;2.47;;
6346;SDS011;3206;42.666;23.600;2022-11-15T11:19:23;2.47;;;2.13;;
6346;SDS011;3206;42.666;23.600;2022-11-15T11:22:12;2.97;;;2.77;;
6346;SDS011;3206;42.666;23.600;2022-11-15T11:24:47;3.03;;;2.47;;
6346;SDS011;3206;42.666;23.600;2022-11-15T11:27:25;2.67;;;1.60;;
6346;SDS011;3206;42.666;23.600;2022-11-15T11:30:03;3.60;;;2.53;;
6346;SDS011;3206;42.666;23.600;2022-11-15T11:35:37;3.17;;;2.43;;
6346;SDS011;3206;42.666;23.600;2022-11-15T11:38:19;2.30;;;2.10;;
6346;SDS011;3206;42.666;23.600;2022-11-15T11:41:04;4.53;;;2.77;;
6346;SDS011;3206;42.666;23.600;2022-11-15T11:43:36;6.27;;;2.33;;
6346;SDS011;3206;42.666;23.600;2022-11-15T11:49:06;2.00;;;1.90;;
6346;SDS011;3206;42.666;23.600;2022-11-15T11:51:38;3.70;;;2.80;;
6346;SDS011;3206;42.666;23.600;2022-11-15T11:54:10;2.13;;;1.93;;
6346;SDS011;3206;42.666;23.600;2022-11-15T11:56:41;3.33;;;2.90;;
6346;SDS011;3206;42.666;23.600;2022-11-15T11:59:12;2.27;;;2.17;;
6346;SDS011;3206;42.666;23.600;2022-11-15T12:01:45;3.33;;;2.70;;
6346;SDS011;3206;42.666;23.600;2022-11-15T12:04:13;2.30;;;1.70;;
6346;SDS011;3206;42.666;23.600;2022-11-15T12:06:47;2.80;;;2.37;;
6346;SDS011;3206;42.666;23.600;2022-11-15T12:09:20;1.30;;;1.20;;
6346;SDS011;3206;42.666;23.600;2022-11-15T12:11:55;1.10;;;1.10;;
6346;SDS011;3206;42.666;23.600;2022-11-15T12:14:32;3.10;;;2.80;;
6346;SDS011;3206;42.666;23.600;2022-11-15T12:17:04;1.40;;;1.33;;
6346;SDS011;3206;42.666;23.600;2022-11-15T12:19:34;1.80;;;1.43;;
6346;SDS011;3206;42.666;23.600;2022-11-15T12:22:04;3.30;;;3.10;;
6346;SDS011;3206;42.666;23.600;2022-11-15T12:24:46;2.60;;;2.17;;
6346;SDS011;3206;42.666;23.600;2022-11-15T12:27:18;3.30;;;3.00;;
6346;SDS011;3206;42.666;23.600;2022-11-15T12:29:53;1.87;;;1.77;;
6346;SDS011;3206;42.666;23.600;2022-11-15T12:32:25;5.80;;;2.83;;
6346;SDS011;3206;42.666;23.600;2022-11-15T12:34:55;2.30;;;2.17;;
6346;SDS011;3206;42.666;23.600;2022-11-15T12:37:44;4.00;;;2.63;;
6346;SDS011;3206;42.666;23.600;2022-11-15T12:40:18;2.87;;;2.67;;
6346;SDS011;3206;42.666;23.600;2022-11-15T12:42:57;2.87;;;2.40;;
6346;SDS011;3206;42.666;23.600;2022-11-15T12:45:27;3.37;;;1.97;;
6346;SDS011;3206;42.666;23.600;2022-11-15T12:47:56;1.57;;;1.50;;
6346;SDS011;3206;42.666;23.600;2022-11-15T12:50:53;4.57;;;2.63;;
6346;SDS011;3206;42.666;23.600;2022-11-15T12:53:29;2.00;;;1.83;;
6346;SDS011;3206;42.666;23.600;2022-11-15T12:56:09;3.50;;;3.20;;
6346;SDS011;3206;42.666;23.600;2022-11-15T12:58:48;2.17;;;2.07;;
6346;SDS011;3206;42.666;23.600;2022-11-15T13:04:23;2.43;;;2.23;;
6346;SDS011;3206;42.666;23.600;2022-11-15T13:06:51;2.43;;;1.90;;
6346;SDS011;3206;42.666;23.600;2022-11-15T13:15:31;2.33;;;2.23;;
6346;SDS011;3206;42.666;23.600;2022-11-15T13:20:52;3.53;;;1.87;;
6346;SDS011;3206;42.666;23.600;2022-11-15T13:23:19;6.63;;;3.83;;
6346;SDS011;3206;42.666;23.600;2022-11-15T13:26:02;4.03;;;2.63;;
6346;SDS011;3206;42.666;23.600;2022-11-15T13:28:38;3.63;;;2.83;;
6346;SDS011;3206;42.666;23.600;2022-11-15T13:31:22;3.37;;;3.07;;
6346;SDS011;3206;42.666;23.600;2022-11-15T13:33:52;3.37;;;2.67;;
6346;SDS011;3206;42.666;23.600;2022-11-15T13:36:22;3.43;;;3.13;;
6346;SDS011;3206;42.666;23.600;2022-11-15T13:38:56;3.17;;;2.57;;
6346;SDS011;3206;42.666;23.600;2022-11-15T13:41:26;3.60;;;2.83;;
6346;SDS011;3206;42.666;23.600;2022-11-15T13:43:54;2.87;;;2.67;;
6346;SDS011;3206;42.666;23.600;2022-11-15T13:46:23;2.93;;;2.70;;
6346;SDS011;3206;42.666;23.600;2022-11-15T13:48:52;3.30;;;2.67;;
6346;SDS011;3206;42.666;23.600;2022-11-15T13:51:23;4.17;;;3.30;;
6346;SDS011;3206;42.666;23.600;2022-11-15T13:53:54;4.40;;;3.20;;
6346;SDS011;3206;42.666;23.600;2022-11-15T13:56:26;2.40;;;2.30;;
6346;SDS011;3206;42.666;23.600;2022-11-15T13:58:54;2.80;;;2.07;;
6346;SDS011;3206;42.666;23.600;2022-11-15T14:01:21;3.27;;;3.00;;
6346;SDS011;3206;42.666;23.600;2022-11-15T14:03:51;3.00;;;2.70;;
6346;SDS011;3206;42.666;23.600;2022-11-15T14:06:21;3.10;;;2.90;;
6346;SDS011;3206;42.666;23.600;2022-11-15T14:11:57;3.47;;;2.37;;
6346;SDS011;3206;42.666;23.600;2022-11-15T14:14:25;3.50;;;3.20;;
6346;SDS011;3206;42.666;23.600;2022-11-15T14:16:53;2.80;;;2.60;;
6346;SDS011;3206;42.666;23.600;2022-11-15T14:19:37;3.40;;;3.10;;
6346;SDS011;3206;42.666;23.600;2022-11-15T14:22:09;3.90;;;2.83;;
6346;SDS011;3206;42.666;23.600;2022-11-15T14:24:38;5.40;;;3.70;;
6346;SDS011;3206;42.666;23.600;2022-11-15T14:27:21;5.80;;;3.33;;
6346;SDS011;3206;42.666;23.600;2022-11-15T14:29:49;4.33;;;3.30;;
6346;SDS011;3206;42.666;23.600;2022-11-15T14:32:17;5.47;;;4.50;;
6346;SDS011;3206;42.666;23.600;2022-11-15T14:34:46;3.83;;;3.43;;
6346;SDS011;3206;42.666;23.600;2022-11-15T14:37:18;5.07;;;3.37;;
6346;SDS011;3206;42.666;23.600;2022-11-15T14:39:47;5.30;;;3.50;;
6346;SDS011;3206;42.666;23.600;2022-11-15T14:42:14;5.07;;;2.63;;
6346;SDS011;3206;42.666;23.600;2022-11-15T14:44:43;6.33;;;3.83;;
6346;SDS011;3206;42.666;23.600;2022-11-15T14:47:09;8.07;;;4.60;;
6346;SDS011;3206;42.666;23.600;2022-11-15T14:49:36;4.57;;;4.20;;
6346;SDS011;3206;42.666;23.600;2022-11-15T14:52:04;8.17;;;4.87;;
6346;SDS011;3206;42.666;23.600;2022-11-15T14:54:42;4.67;;;4.33;;
6346;SDS011;3206;42.666;23.600;2022-11-15T14:57:09;4.63;;;4.33;;
6346;SDS011;3206;42.666;23.600;2022-11-15T14:59:35;4.53;;;3.60;;
6346;SDS011;3206;42.666;23.600;2022-11-15T15:02:04;4.93;;;3.57;;
6346;SDS011;3206;42.666;23.600;2022-11-15T15:04:39;4.30;;;3.20;;
6346;SDS011;3206;42.666;23.600;2022-11-15T15:07:06;2.70;;;2.50;;
6346;SDS011;3206;42.666;23.600;2022-11-15T15:09:33;2.70;;;2.50;;
6346;SDS011;3206;42.666;23.600;2022-11-15T15:11:59;5.50;;;3.80;;
6346;SDS011;3206;42.666;23.600;2022-11-15T15:14:26;3.53;;;3.13;;
6346;SDS011;3206;42.666;23.600;2022-11-15T15:16:53;2.60;;;2.40;;
6346;SDS011;3206;42.666;23.600;2022-11-15T15:19:20;5.10;;;3.73;;
6346;SDS011;3206;42.666;23.600;2022-11-15T15:21:47;7.17;;;4.40;;
6346;SDS011;3206;42.666;23.600;2022-11-15T15:24:14;5.03;;;3.57;;
6346;SDS011;3206;42.666;23.600;2022-11-15T15:26:41;18.77;;;5.63;;
6346;SDS011;3206;42.666;23.600;2022-11-15T15:29:08;5.20;;;4.30;;
6346;SDS011;3206;42.666;23.600;2022-11-15T15:31:35;8.87;;;3.80;;
6346;SDS011;3206;42.666;23.600;2022-11-15T15:34:02;4.27;;;3.43;;
6346;SDS011;3206;42.666;23.600;2022-11-15T15:36:31;4.83;;;3.10;;
6346;SDS011;3206;42.666;23.600;2022-11-15T15:38:58;13.83;;;3.63;;
6346;SDS011;3206;42.666;23.600;2022-11-15T15:41:25;4.13;;;3.83;;
6346;SDS011;3206;42.666;23.600;2022-11-15T15:43:51;14.53;;;11.13;;
6346;SDS011;3206;42.666;23.600;2022-11-15T15:46:18;27.47;;;18.00;;
6346;SDS011;3206;42.666;23.600;2022-11-15T15:48:46;21.70;;;12.67;;
6346;SDS011;3206;42.666;23.600;2022-11-15T15:51:13;14.60;;;9.50;;
6346;SDS011;3206;42.666;23.600;2022-11-15T15:53:41;15.50;;;10.37;;
6346;SDS011;3206;42.666;23.600;2022-11-15T15:56:08;27.47;;;13.30;;
6346;SDS011;3206;42.666;23.600;2022-11-15T15:58:35;17.10;;;11.40;;
6346;SDS011;3206;42.666;23.600;2022-11-15T16:01:01;11.50;;;7.40;;
6346;SDS011;3206;42.666;23.600;2022-11-15T16:03:28;14.10;;;10.33;;
6346;SDS011;3206;42.666;23.600;2022-11-15T16:05:55;24.73;;;13.43;;
6346;SDS011;3206;42.666;23.600;2022-11-15T16:08:23;23.27;;;9.57;;
6346;SDS011;3206;42.666;23.600;2022-11-15T16:10:52;9.73;;;7.10;;
6346;SDS011;3206;42.666;23.600;2022-11-15T16:13:19;5.40;;;4.93;;
6346;SDS011;3206;42.666;23.600;2022-11-15T16:15:46;9.63;;;6.70;;
6346;SDS011;3206;42.666;23.600;2022-11-15T16:18:17;4.57;;;4.17;;
6346;SDS011;3206;42.666;23.600;2022-11-15T16:20:44;7.47;;;4.17;;
6346;SDS011;3206;42.666;23.600;2022-11-15T16:23:15;5.23;;;4.20;;
6346;SDS011;3206;42.666;23.600;2022-11-15T16:25:44;4.77;;;4.23;;
6346;SDS011;3206;42.666;23.600;2022-11-15T16:28:16;5.40;;;3.77;;
6346;SDS011;3206;42.666;23.600;2022-11-15T16:30:45;8.07;;;4.30;;
6346;SDS011;3206;42.666;23.600;2022-11-15T16:33:12;21.10;;;4.40;;
6346;SDS011;3206;42.666;23.600;2022-11-15T16:35:38;7.63;;;5.03;;
6346;SDS011;3206;42.666;23.600;2022-11-15T16:38:05;7.03;;;4.93;;
6346;SDS011;3206;42.666;23.600;2022-11-15T16:40:33;11.03;;;5.97;;
6346;SDS011;3206;42.666;23.600;2022-11-15T16:43:01;2.47;;;2.30;;
6346;SDS011;3206;42.666;23.600;2022-11-15T16:45:31;5.40;;;3.83;;
6346;SDS011;3206;42.666;23.600;2022-11-15T16:48:00;3.23;;;3.00;;
6346;SDS011;3206;42.666;23.600;2022-11-15T16:50:27;3.33;;;3.00;;
6346;SDS011;3206;42.666;23.600;2022-11-15T16:52:57;3.10;;;2.90;;
6346;SDS011;3206;42.666;23.600;2022-11-15T16:55:25;4.13;;;3.73;;
6346;SDS011;3206;42.666;23.600;2022-11-15T16:57:53;4.43;;;3.37;;
6346;SDS011;3206;42.666;23.600;2022-11-15T17:00:22;1.90;;;1.80;;
6346;SDS011;3206;42.666;23.600;2022-11-15T17:02:51;4.43;;;2.80;;
6346;SDS011;3206;42.666;23.600;2022-11-15T17:05:19;3.43;;;3.13;;
6346;SDS011;3206;42.666;23.600;2022-11-15T17:07:48;2.80;;;2.47;;
6346;SDS011;3206;42.666;23.600;2022-11-15T17:10:18;2.60;;;2.43;;
6346;SDS011;3206;42.666;23.600;2022-11-15T17:12:45;4.37;;;3.20;;
6346;SDS011;3206;42.666;23.600;2022-11-15T17:15:12;4.77;;;2.17;;
6346;SDS011;3206;42.666;23.600;2022-11-15T17:17:38;8.03;;;4.67;;
6346;SDS011;3206;42.666;23.600;2022-11-15T17:20:09;5.13;;;3.97;;
6346;SDS011;3206;42.666;23.600;2022-11-15T17:22:40;6.10;;;4.47;;
6346;SDS011;3206;42.666;23.600;2022-11-15T17:25:07;5.80;;;3.37;;
6346;SDS011;3206;42.666;23.600;2022-11-15T17:27:34;3.77;;;3.37;;
6346;SDS011;3206;42.666;23.600;2022-11-15T17:30:01;3.07;;;2.77;;
6346;SDS011;3206;42.666;23.600;2022-11-15T17:32:27;5.80;;;5.23;;
6346;SDS011;3206;42.666;23.600;2022-11-15T17:34:54;7.63;;;4.80;;
6346;SDS011;3206;42.666;23.600;2022-11-15T17:37:22;7.40;;;4.10;;
6346;SDS011;3206;42.666;23.600;2022-11-15T17:39:48;9.73;;;5.60;;
6346;SDS011;3206;42.666;23.600;2022-11-15T17:42:15;3.50;;;3.00;;
6346;SDS011;3206;42.666;23.600;2022-11-15T17:44:42;2.67;;;2.47;;
6346;SDS011;3206;42.666;23.600;2022-11-15T17:47:08;9.63;;;4.23;;
6346;SDS011;3206;42.666;23.600;2022-11-15T17:49:35;4.83;;;3.73;;
6346;SDS011;3206;42.666;23.600;2022-11-15T17:52:04;3.10;;;2.80;;
6346;SDS011;3206;42.666;23.600;2022-11-15T17:54:33;2.77;;;1.40;;
6346;SDS011;3206;42.666;23.600;2022-11-15T17:56:59;1.37;;;1.27;;
6346;SDS011;3206;42.666;23.600;2022-11-15T17:59:26;2.07;;;1.97;;
6346;SDS011;3206;42.666;23.600;2022-11-15T18:01:52;2.23;;;2.07;;
6346;SDS011;3206;42.666;23.600;2022-11-15T18:04:19;2.47;;;1.63;;
6346;SDS011;3206;42.666;23.600;2022-11-15T18:06:52;2.23;;;2.03;;
6346;SDS011;3206;42.666;23.600;2022-11-15T18:09:19;2.30;;;1.70;;
6346;SDS011;3206;42.666;23.600;2022-11-15T18:11:47;5.27;;;2.77;;
6346;SDS011;3206;42.666;23.600;2022-11-15T18:14:15;1.90;;;1.80;;
6346;SDS011;3206;42.666;23.600;2022-11-15T18:16:43;1.50;;;1.40;;
6346;SDS011;3206;42.666;23.600;2022-11-15T18:19:10;1.67;;;1.67;;
6346;SDS011;3206;42.666;23.600;2022-11-15T18:21:38;5.17;;;2.60;;
6346;SDS011;3206;42.666;23.600;2022-11-15T18:24:19;2.33;;;2.03;;
6346;SDS011;3206;42.666;23.600;2022-11-15T18:26:47;1.77;;;1.63;;
6346;SDS011;3206;42.666;23.600;2022-11-15T18:29:14;1.57;;;1.43;;
6346;SDS011;3206;42.666;23.600;2022-11-15T18:31:41;2.23;;;1.83;;
6346;SDS011;3206;42.666;23.600;2022-11-15T18:34:07;2.73;;;2.03;;
6346;SDS011;3206;42.666;23.600;2022-11-15T18:36:35;5.30;;;2.20;;
6346;SDS011;3206;42.666;23.600;2022-11-15T18:39:03;6.13;;;3.90;;
6346;SDS011;3206;42.666;23.600;2022-11-15T18:41:30;4.87;;;3.73;;
6346;SDS011;3206;42.666;23.600;2022-11-15T18:44:00;10.50;;;3.70;;
6346;SDS011;3206;42.666;23.600;2022-11-15T18:46:28;3.33;;;2.73;;
6346;SDS011;3206;42.666;23.600;2022-11-15T18:48:57;4.27;;;3.40;;
6346;SDS011;3206;42.666;23.600;2022-11-15T18:51:25;2.90;;;2.70;;
6346;SDS011;3206;42.666;23.600;2022-11-15T18:53:54;2.83;;;2.63;;
6346;SDS011;3206;42.666;23.600;2022-11-15T18:56:22;6.33;;;3.93;;
6346;SDS011;3206;42.666;23.600;2022-11-15T18:58:51;2.23;;;2.00;;
6346;SDS011;3206;42.666;23.600;2022-11-15T19:01:20;3.37;;;2.87;;
6346;SDS011;3206;42.666;23.600;2022-11-15T19:03:49;3.50;;;3.30;;
6346;SDS011;3206;42.666;23.600;2022-11-15T19:06:17;2.83;;;2.40;;
6346;SDS011;3206;42.666;23.600;2022-11-15T19:08:46;1.87;;;1.77;;
6346;SDS011;3206;42.666;23.600;2022-11-15T19:11:14;4.80;;;2.70;;
6346;SDS011;3206;42.666;23.600;2022-11-15T19:13:42;2.53;;;2.30;;
6346;SDS011;3206;42.666;23.600;2022-11-15T19:16:10;9.60;;;3.80;;
6346;SDS011;3206;42.666;23.600;2022-11-15T19:18:39;3.17;;;2.27;;
6346;SDS011;3206;42.666;23.600;2022-11-15T19:21:07;6.83;;;3.07;;
6346;SDS011;3206;42.666;23.600;2022-11-15T19:23:35;3.43;;;2.13;;
6346;SDS011;3206;42.666;23.600;2022-11-15T19:26:03;3.73;;;2.00;;
6346;SDS011;3206;42.666;23.600;2022-11-15T19:28:31;1.97;;;1.87;;
6346;SDS011;3206;42.666;23.600;2022-11-15T19:31:02;2.80;;;2.40;;
6346;SDS011;3206;42.666;23.600;2022-11-15T19:33:29;3.10;;;2.83;;
6346;SDS011;3206;42.666;23.600;2022-11-15T19:35:59;2.83;;;2.20;;
6346;SDS011;3206;42.666;23.600;2022-11-15T19:38:26;2.50;;;2.40;;
6346;SDS011;3206;42.666;23.600;2022-11-15T19:40:56;2.37;;;1.97;;
6346;SDS011;3206;42.666;23.600;2022-11-15T19:43:23;4.00;;;2.67;;
6346;SDS011;3206;42.666;23.600;2022-11-15T19:45:51;1.87;;;1.73;;
6346;SDS011;3206;42.666;23.600;2022-11-15T19:48:18;7.23;;;2.43;;
6346;SDS011;3206;42.666;23.600;2022-11-15T19:50:44;4.27;;;2.13;;
6346;SDS011;3206;42.666;23.600;2022-11-15T19:53:12;4.10;;;2.20;;
6346;SDS011;3206;42.666;23.600;2022-11-15T19:55:39;6.30;;;2.93;;
6346;SDS011;3206;42.666;23.600;2022-11-15T19:58:06;5.33;;;2.83;;
6346;SDS011;3206;42.666;23.600;2022-11-15T20:00:32;2.57;;;2.33;;
6346;SDS011;3206;42.666;23.600;2022-11-15T20:02:59;4.17;;;2.33;;
6346;SDS011;3206;42.666;23.600;2022-11-15T20:05:26;3.07;;;2.17;;
6346;SDS011;3206;42.666;23.600;2022-11-15T20:07:52;2.97;;;2.73;;
6346;SDS011;3206;42.666;23.600;2022-11-15T20:10:20;3.40;;;1.83;;
6346;SDS011;3206;42.666;23.600;2022-11-15T20:12:47;2.87;;;2.57;;
6346;SDS011;3206;42.666;23.600;2022-11-15T20:15:14;3.10;;;2.67;;
6346;SDS011;3206;42.666;23.600;2022-11-15T20:17:40;2.47;;;2.27;;
6346;SDS011;3206;42.666;23.600;2022-11-15T20:20:07;2.53;;;1.93;;
6346;SDS011;3206;42.666;23.600;2022-11-15T20:22:35;1.80;;;1.70;;
6346;SDS011;3206;42.666;23.600;2022-11-15T20:25:03;2.00;;;1.90;;
6346;SDS011;3206;42.666;23.600;2022-11-15T20:27:31;2.23;;;2.13;;
6346;SDS011;3206;42.666;23.600;2022-11-15T20:29:58;2.63;;;1.93;;
6346;SDS011;3206;42.666;23.600;2022-11-15T20:32:24;8.33;;;2.83;;
6346;SDS011;3206;42.666;23.600;2022-11-15T20:34:51;3.53;;;2.87;;
6346;SDS011;3206;42.666;23.600;2022-11-15T20:37:18;2.37;;;2.20;;
6346;SDS011;3206;42.666;23.600;2022-11-15T20:39:45;4.03;;;2.10;;
6346;SDS011;3206;42.666;23.600;2022-11-15T20:42:12;6.30;;;1.77;;
6346;SDS011;3206;42.666;23.600;2022-11-15T20:44:40;3.57;;;2.47;;
6346;SDS011;3206;42.666;23.600;2022-11-15T20:47:06;2.13;;;1.87;;
6346;SDS011;3206;42.666;23.600;2022-11-15T20:49:33;3.87;;;2.70;;
6346;SDS011;3206;42.666;23.600;2022-11-15T20:52:00;2.33;;;2.23;;
6346;SDS011;3206;42.666;23.600;2022-11-15T20:54:26;2.20;;;1.93;;
6346;SDS011;3206;42.666;23.600;2022-11-15T20:56:53;2.67;;;2.50;;
6346;SDS011;3206;42.666;23.600;2022-11-15T20:59:20;5.43;;;3.93;;
6346;SDS011;3206;42.666;23.600;2022-11-15T21:01:48;2.87;;;2.63;;
6346;SDS011;3206;42.666;23.600;2022-11-15T21:04:14;2.97;;;2.70;;
6346;SDS011;3206;42.666;23.600;2022-11-15T21:06:41;3.30;;;2.30;;
6346;SDS011;3206;42.666;23.600;2022-11-15T21:09:07;1.77;;;1.57;;
6346;SDS011;3206;42.666;23.600;2022-11-15T21:11:52;1.47;;;1.10;;
6346;SDS011;3206;42.666;23.600;2022-11-15T21:14:36;3.17;;;2.97;;
6346;SDS011;3206;42.666;23.600;2022-11-15T21:17:05;1.60;;;1.60;;
6346;SDS011;3206;42.666;23.600;2022-11-15T21:19:32;3.67;;;2.93;;
6346;SDS011;3206;42.666;23.600;2022-11-15T21:21:59;1.53;;;1.43;;
6346;SDS011;3206;42.666;23.600;2022-11-15T21:24:26;1.90;;;1.73;;
6346;SDS011;3206;42.666;23.600;2022-11-15T21:26:53;7.33;;;2.03;;
6346;SDS011;3206;42.666;23.600;2022-11-15T21:29:20;0.90;;;0.90;;
6346;SDS011;3206;42.666;23.600;2022-11-15T21:31:47;2.60;;;2.23;;
6346;SDS011;3206;42.666;23.600;2022-11-15T21:34:16;6.13;;;2.13;;
6346;SDS011;3206;42.666;23.600;2022-11-15T21:36:44;4.50;;;2.27;;
6346;SDS011;3206;42.666;23.600;2022-11-15T21:39:10;13.87;;;5.93;;
6346;SDS011;3206;42.666;23.600;2022-11-15T21:41:37;2.00;;;1.90;;
6346;SDS011;3206;42.666;23.600;2022-11-15T21:44:04;3.50;;;2.13;;
6346;SDS011;3206;42.666;23.600;2022-11-15T21:46:31;3.93;;;3.53;;
6346;SDS011;3206;42.666;23.600;2022-11-15T21:48:57;3.10;;;2.90;;
6346;SDS011;3206;42.666;23.600;2022-11-15T21:51:25;4.13;;;2.70;;
6346;SDS011;3206;42.666;23.600;2022-11-15T21:53:53;2.87;;;2.50;;
6346;SDS011;3206;42.666;23.600;2022-11-15T21:56:21;3.63;;;3.20;;
6346;SDS011;3206;42.666;23.600;2022-11-15T21:58:48;4.73;;;2.23;;
6346;SDS011;3206;42.666;23.600;2022-11-15T22:01:14;2.23;;;2.13;;
6346;SDS011;3206;42.666;23.600;2022-11-15T22:03:58;1.87;;;1.63;;
6346;SDS011;3206;42.666;23.600;2022-11-15T22:06:26;8.43;;;3.80;;
6346;SDS011;3206;42.666;23.600;2022-11-15T22:08:53;2.87;;;2.53;;
6346;SDS011;3206;42.666;23.600;2022-11-15T22:11:19;3.63;;;2.37;;
6346;SDS011;3206;42.666;23.600;2022-11-15T22:13:46;3.73;;;3.00;;
6346;SDS011;3206;42.666;23.600;2022-11-15T22:16:13;2.37;;;1.90;;
6346;SDS011;3206;42.666;23.600;2022-11-15T22:18:39;2.13;;;1.50;;
6346;SDS011;3206;42.666;23.600;2022-11-15T22:21:07;2.83;;;2.50;;
6346;SDS011;3206;42.666;23.600;2022-11-15T22:23:37;2.27;;;2.07;;
6346;SDS011;3206;42.666;23.600;2022-11-15T22:26:04;1.47;;;1.40;;
6346;SDS011;3206;42.666;23.600;2022-11-15T22:28:31;2.87;;;1.40;;
6346;SDS011;3206;42.666;23.600;2022-11-15T22:30:59;2.33;;;2.07;;
6346;SDS011;3206;42.666;23.600;2022-11-15T22:33:26;1.53;;;1.40;;
6346;SDS011;3206;42.666;23.600;2022-11-15T22:35:55;2.07;;;1.83;;
6346;SDS011;3206;42.666;23.600;2022-11-15T22:38:23;3.53;;;2.17;;
6346;SDS011;3206;42.666;23.600;2022-11-15T22:40:51;3.97;;;2.23;;
6346;SDS011;3206;42.666;23.600;2022-11-15T22:43:19;1.17;;;1.07;;
6346;SDS011;3206;42.666;23.600;2022-11-15T22:45:50;2.07;;;1.97;;
6346;SDS011;3206;42.666;23.600;2022-11-15T22:48:18;1.13;;;1.13;;
6346;SDS011;3206;42.666;23.600;2022-11-15T22:50:45;1.80;;;1.67;;
6346;SDS011;3206;42.666;23.600;2022-11-15T22:53:12;2.87;;;2.67;;
6346;SDS011;3206;42.666;23.600;2022-11-15T22:55:39;1.80;;;1.70;;
6346;SDS011;3206;42.666;23.600;2022-11-15T22:58:07;1.70;;;1.33;;
6346;SDS011;3206;42.666;23.600;2022-11-15T23:00:34;1.00;;;1.00;;
6346;SDS011;3206;42.666;23.600;2022-11-15T23:03:02;2.70;;;2.50;;
6346;SDS011;3206;42.666;23.600;2022-11-15T23:05:29;1.70;;;1.70;;
6346;SDS011;3206;42.666;23.600;2022-11-15T23:07:56;6.90;;;2.57;;
6346;SDS011;3206;42.666;23.600;2022-11-15T23:10:22;4.03;;;2.97;;
6346;SDS011;3206;42.666;23.600;2022-11-15T23:13:10;2.33;;;1.83;;
6346;SDS011;3206;42.666;23.600;2022-11-15T23:15:44;8.20;;;3.00;;
6346;SDS011;3206;42.666;23.600;2022-11-15T23:18:31;4.37;;;2.30;;
6346;SDS011;3206;42.666;23.600;2022-11-15T23:21:05;2.80;;;2.10;;
6346;SDS011;3206;42.666;23.600;2022-11-15T23:23:33;2.37;;;1.60;;
6346;SDS011;3206;42.666;23.600;2022-11-15T23:25:59;4.67;;;2.47;;
6346;SDS011;3206;42.666;23.600;2022-11-15T23:28:28;3.10;;;2.10;;
6346;SDS011;3206;42.666;23.600;2022-11-15T23:31:00;1.63;;;1.53;;
6346;SDS011;3206;42.666;23.600;2022-11-15T23:33:45;2.43;;;1.80;;
6346;SDS011;3206;42.666;23.600;2022-11-15T23:36:24;3.70;;;2.60;;
6346;SDS011;3206;42.666;23.600;2022-11-15T23:38:51;2.13;;;2.03;;
6346;SDS011;3206;42.666;23.600;2022-11-15T23:41:19;2.07;;;1.97;;
6346;SDS011;3206;42.666;23.600;2022-11-15T23:43:49;3.10;;;2.17;;
6346;SDS011;3206;42.666;23.600;2022-11-15T23:46:16;4.40;;;2.23;;
6346;SDS011;3206;42.666;23.600;2022-11-15T23:48:43;2.17;;;2.03;;
6346;SDS011;3206;42.666;23.600;2022-11-15T23:51:09;4.27;;;2.63;;
6346;SDS011;3206;42.666;23.600;2022-11-15T23:53:36;1.53;;;1.43;;
6346;SDS011;3206;42.666;23.600;2022-11-15T23:56:04;1.90;;;1.80;;
6346;SDS011;3206;42.666;23.600;2022-11-15T23:58:32;1.73;;;1.63;;
